Airfield :
LOGIN :

Register | Disclaimer

   EN    FR    IT 

 










Legend :    VFR   Marginal VFR   IFR   Intensive IFR   Very Intensive IFR
Visi :
Ceiling :
>= 8 km
>= 3000ft
5 to 8 km
1000 to 3000 ft
1500m to 5 km
500 to 1000 ft
800 to 1500m
200 to 500 ft
< 800m
< 200 ft
Symbols :   Thunderstorms  Fog  Heavy snow  Heavy precipitations  Wind > 20 kt
SIGMETs :     Misc.  Thunderstorms  Icing  Turbulence  Mountain Waves  Volcanic Ashes







- Airport Elevation : 20 ft


EBFN - Koksijde

CURRENT METAR :
  • 231325Z 20015KT 9999 BKN009 BKN018 09/09 Q1018 GRN GRN TEMPO YLO

EXPIRED METARs :
  • 231255Z 21014KT 9999 BKN010 BKN020 09/08 Q1018 GRN GRN TEMPO YLO
  • 231225Z 21012KT 9999 -RA BKN011 BKN022 09/08 Q1018 GRN GRN TEMPO YLO
  • 231155Z 20014KT 9999 -RA BKN013 BKN022 09/08 Q1019 GRN GRN TEMPO YLO
  • 231147Z 21014KT 9999 -RA BKN014 BKN028 09/07 Q1019 GRN GRN TEMPO YLO
  • 231125Z 20013KT 9999 -RA SCT018 BKN028 09/07 Q1019 WHT BLU BECMG WHT
  • 231122Z 20014KT 9999 -RA SCT018 BKN028 09/07 Q1019 WHT BLU BECMG WHT
  • 231055Z 20014KT 9999 -RA FEW025 BKN037 BKN210 09/07 Q1019 BLU BLU BECMG WHT

TAF TAF EBFN
Valid from the 23 at 13:00 until the 23 at 22:00 UTC


231141Z 2313/2322 21015KT 8000 FEW010 BKN030
BECMG 2313/2315 21015G35KT 6000 BKN010
TEMPO 2313/2322 21015G40KT 4000 -RADZ BKN007 BKN120
TEMPO 2314/2322 2000 DZ OVC005
No reported NOTAMs for that airfield.



MET'MAP, your aeronautical weather chart ! - Copyright ORBIFLY December 2007 - Disclaimer

ORBIFLY MET'MAP TEAM :

Programming & Development : Alexandra Zaïnal
Concept & Development : Baudouin d'Aumeries
Co-Development & Prog : Marc-Olivier Méhu
Technical & hardware support : Manuel Goepfert

Contact : metmap@orbifly.com




SOURCES & CREDITS :

   NOAA